createdAt,value
2023-01-07T00:01:40.983Z,-1.80
2023-01-07T00:04:11.920Z,-1.70
2023-01-07T00:06:41.118Z,-1.80
2023-01-07T00:09:16.562Z,-1.70
2023-01-07T00:11:44.532Z,-1.70
2023-01-07T00:14:13.607Z,-1.70
2023-01-07T00:16:41.866Z,-1.60
2023-01-07T00:19:15.361Z,-1.60
2023-01-07T00:21:43.512Z,-1.50
2023-01-07T00:24:12.067Z,-1.50
2023-01-07T00:26:40.577Z,-1.40
2023-01-07T00:29:08.801Z,-1.40
2023-01-07T00:31:39.146Z,-1.30
2023-01-07T00:34:08.922Z,-1.30
2023-01-07T00:36:44.148Z,-1.30
2023-01-07T00:39:13.955Z,-1.20
2023-01-07T00:42:02.162Z,-1.30
2023-01-07T00:44:30.586Z,-1.20
2023-01-07T00:46:59.556Z,-1.20
2023-01-07T00:49:27.266Z,-1.20
2023-01-07T00:51:54.867Z,-1.20
2023-01-07T00:54:22.988Z,-1.20
2023-01-07T00:56:50.858Z,-1.20
2023-01-07T00:59:18.507Z,-1.20
2023-01-07T01:01:46.669Z,-1.30
2023-01-07T01:04:14.871Z,-1.30
2023-01-07T01:06:42.504Z,-1.20
2023-01-07T01:09:10.149Z,-1.30
2023-01-07T01:11:37.705Z,-1.20
2023-01-07T01:14:05.266Z,-1.30
2023-01-07T01:16:32.857Z,-1.30
2023-01-07T01:19:00.469Z,-1.30
2023-01-07T01:21:28.573Z,-1.30
2023-01-07T01:23:56.339Z,-1.30
2023-01-07T01:26:24.087Z,-1.30
2023-01-07T01:28:51.716Z,-1.30
2023-01-07T01:31:23.430Z,-1.40
2023-01-07T01:33:57.307Z,-1.50
2023-01-07T01:36:25.219Z,-1.50
2023-01-07T01:38:55.388Z,-1.50
2023-01-07T01:41:23.158Z,-1.60
2023-01-07T01:43:53.761Z,-1.60
2023-01-07T01:46:38.228Z,-1.50
2023-01-07T01:49:25.610Z,-1.50
2023-01-07T01:51:59.885Z,-1.60
2023-01-07T01:54:28.427Z,-1.60
2023-01-07T01:57:00.922Z,-1.60
2023-01-07T01:59:33.436Z,-1.60
2023-01-07T02:02:04.936Z,-1.50
2023-01-07T02:04:33.900Z,-1.60
2023-01-07T02:07:06.136Z,-1.50
2023-01-07T02:09:35.845Z,-1.60
2023-01-07T02:12:14.550Z,-1.60
2023-01-07T02:14:42.136Z,-1.60
2023-01-07T02:17:34.339Z,-1.60
2023-01-07T02:20:20.573Z,-1.60
2023-01-07T02:23:08.417Z,-1.70
2023-01-07T02:25:35.879Z,-1.70
2023-01-07T02:28:46.112Z,-1.60
2023-01-07T02:31:45.933Z,-1.70
2023-01-07T02:34:34.934Z,-1.60
2023-01-07T02:37:05.539Z,-1.60
2023-01-07T02:39:49.891Z,-1.80
2023-01-07T02:42:55.049Z,-1.80
2023-01-07T02:46:04.618Z,-1.80
2023-01-07T02:48:34.117Z,-1.80
2023-01-07T02:51:01.789Z,-1.80
2023-01-07T02:53:29.976Z,-1.90
2023-01-07T02:56:04.477Z,-1.80
2023-01-07T02:59:01.638Z,-1.90
2023-01-07T03:01:53.541Z,-2.00
2023-01-07T03:04:37.439Z,-2.00
2023-01-07T03:07:15.111Z,-2.00
2023-01-07T03:09:55.625Z,-2.00
2023-01-07T03:12:35.157Z,-2.00
2023-01-07T03:15:14.395Z,-2.00
2023-01-07T03:17:48.570Z,-2.00
2023-01-07T03:20:18.564Z,-2.00
2023-01-07T03:22:47.370Z,-2.10
2023-01-07T03:25:17.676Z,-2.10
2023-01-07T03:27:47.565Z,-2.00
2023-01-07T03:30:18.505Z,-2.00
2023-01-07T03:32:52.711Z,-2.10
2023-01-07T03:35:23.334Z,-2.00
2023-01-07T03:37:51.726Z,-2.10
2023-01-07T03:40:20.463Z,-2.10
2023-01-07T03:42:49.487Z,-2.00
2023-01-07T03:45:24.846Z,-2.10
2023-01-07T03:47:56.816Z,-2.10
2023-01-07T03:50:27.658Z,-2.10
2023-01-07T03:52:56.317Z,-2.10
2023-01-07T03:55:25.075Z,-2.10
2023-01-07T03:57:56.741Z,-2.10
2023-01-07T04:00:26.128Z,-2.10
2023-01-07T04:03:00.443Z,-2.10
2023-01-07T04:05:33.194Z,-2.10
2023-01-07T04:08:01.407Z,-2.00
2023-01-07T04:10:33.485Z,-2.00
2023-01-07T04:13:01.109Z,-2.10
2023-01-07T04:15:28.805Z,-2.20
2023-01-07T04:17:56.400Z,-2.20
2023-01-07T04:20:25.100Z,-2.30
2023-01-07T04:22:52.872Z,-2.30
2023-01-07T04:25:20.563Z,-2.30
2023-01-07T04:27:48.797Z,-2.20
2023-01-07T04:30:16.537Z,-2.30
2023-01-07T04:32:44.185Z,-2.30
2023-01-07T04:35:11.932Z,-2.20
2023-01-07T04:37:40.237Z,-2.20
2023-01-07T04:40:08.766Z,-2.20
2023-01-07T04:42:37.788Z,-2.30
2023-01-07T04:45:08.765Z,-2.20
2023-01-07T04:47:36.433Z,-2.20
2023-01-07T04:50:05.181Z,-2.10
2023-01-07T04:52:35.644Z,-2.20
2023-01-07T04:55:04.405Z,-2.10
2023-01-07T04:57:32.368Z,-2.20
2023-01-07T05:00:00.067Z,-2.30
2023-01-07T05:02:30.743Z,-2.40
2023-01-07T05:04:59.059Z,-2.40
2023-01-07T05:07:26.822Z,-2.40
2023-01-07T05:09:54.452Z,-2.50
2023-01-07T05:12:22.240Z,-2.40
2023-01-07T05:14:50.167Z,-2.50
2023-01-07T05:17:18.768Z,-2.50
2023-01-07T05:19:47.209Z,-2.30
2023-01-07T05:22:15.482Z,-2.40
2023-01-07T05:24:43.393Z,-2.40
2023-01-07T05:27:11.408Z,-2.40
2023-01-07T05:29:39.871Z,-2.40
2023-01-07T05:32:07.620Z,-2.40
2023-01-07T05:34:36.473Z,-2.40
2023-01-07T05:37:04.168Z,-2.30
2023-01-07T05:39:34.410Z,-2.40
2023-01-07T05:42:04.836Z,-2.40
2023-01-07T05:44:32.927Z,-2.40
2023-01-07T05:47:00.670Z,-2.40
2023-01-07T05:49:28.358Z,-2.50
2023-01-07T05:51:58.072Z,-2.50
2023-01-07T05:54:26.044Z,-2.50
2023-01-07T05:56:53.680Z,-2.50
2023-01-07T05:59:21.285Z,-2.50
2023-01-07T06:01:49.163Z,-2.50
2023-01-07T06:04:17.047Z,-2.50
2023-01-07T06:06:44.808Z,-2.50
2023-01-07T06:09:12.674Z,-2.50
2023-01-07T06:11:40.256Z,-2.50
2023-01-07T06:14:07.861Z,-2.50
2023-01-07T06:16:35.551Z,-2.60
2023-01-07T06:19:03.935Z,-2.50
2023-01-07T06:21:31.656Z,-2.50
2023-01-07T06:23:59.326Z,-2.50
2023-01-07T06:26:26.953Z,-2.50
2023-01-07T06:28:54.550Z,-2.50
2023-01-07T06:31:22.463Z,-2.50
2023-01-07T06:33:50.098Z,-2.50
2023-01-07T06:36:17.748Z,-2.40
2023-01-07T06:38:45.473Z,-2.50
2023-01-07T06:41:13.163Z,-2.50
2023-01-07T06:43:40.822Z,-2.50
2023-01-07T06:46:08.684Z,-2.50
2023-01-07T06:48:36.454Z,-2.50
2023-01-07T06:51:04.171Z,-2.50
2023-01-07T06:53:32.024Z,-2.50
2023-01-07T06:55:59.670Z,-2.40
2023-01-07T06:58:27.251Z,-2.60
2023-01-07T07:00:55.145Z,-2.60
2023-01-07T07:03:25.226Z,-2.70
2023-01-07T07:05:52.960Z,-2.60
2023-01-07T07:08:22.958Z,-2.60
2023-01-07T07:10:50.619Z,-2.70
2023-01-07T07:13:18.531Z,-2.60
2023-01-07T07:15:49.982Z,-2.60
2023-01-07T07:18:18.517Z,-2.50
2023-01-07T07:20:46.748Z,-2.40
2023-01-07T07:23:14.583Z,-2.40
2023-01-07T07:25:43.026Z,-2.40
2023-01-07T07:28:11.097Z,-2.30
2023-01-07T07:30:46.267Z,-2.40
2023-01-07T07:33:21.601Z,-2.30
2023-01-07T07:35:49.432Z,-2.20
2023-01-07T07:38:18.546Z,-2.10
2023-01-07T07:40:47.062Z,-2.10
2023-01-07T07:43:15.844Z,-2.00
2023-01-07T07:45:46.093Z,-2.00
2023-01-07T07:48:15.626Z,-2.00
2023-01-07T07:51:07.501Z,-2.00
2023-01-07T07:53:35.162Z,-1.90
2023-01-07T07:56:02.717Z,-1.80
2023-01-07T07:58:30.299Z,-1.80
2023-01-07T08:00:58.042Z,-1.80
2023-01-07T08:03:25.756Z,-1.70
2023-01-07T08:05:53.362Z,-1.70
2023-01-07T08:08:21.074Z,-1.60
2023-01-07T08:10:48.690Z,-1.50
2023-01-07T08:13:19.551Z,-1.50
2023-01-07T08:15:50.295Z,-1.50
2023-01-07T08:18:19.197Z,-1.50
2023-01-07T08:20:49.635Z,-1.50
2023-01-07T08:23:17.534Z,-1.60
2023-01-07T08:25:45.278Z,-1.50
2023-01-07T08:28:13.043Z,-1.50
2023-01-07T08:30:40.752Z,-1.60
2023-01-07T08:33:08.857Z,-1.60
2023-01-07T08:35:36.810Z,-1.50
2023-01-07T08:38:05.935Z,-1.40
2023-01-07T08:40:34.150Z,-1.30
2023-01-07T08:43:03.702Z,-1.30
2023-01-07T08:45:32.093Z,-1.30
2023-01-07T08:48:00.701Z,-1.30
2023-01-07T08:50:31.756Z,-1.20
2023-01-07T08:53:00.199Z,-1.10
2023-01-07T08:55:28.295Z,-1.10
2023-01-07T08:57:56.481Z,-1.00
2023-01-07T09:00:24.598Z,-1.10
2023-01-07T09:02:52.567Z,-1.10
2023-01-07T09:05:20.575Z,-1.10
2023-01-07T09:07:56.983Z,-1.00
2023-01-07T09:10:25.396Z,-1.00
2023-01-07T09:12:53.023Z,-0.90
2023-01-07T09:15:20.772Z,-0.90
2023-01-07T09:17:48.369Z,-0.90
2023-01-07T09:20:16.259Z,-0.70
2023-01-07T09:22:44.083Z,-0.80
2023-01-07T09:25:11.822Z,-0.70
2023-01-07T09:27:39.620Z,-0.70
2023-01-07T09:30:09.525Z,-0.70
2023-01-07T09:32:37.465Z,-0.60
2023-01-07T09:35:06.436Z,-0.50
2023-01-07T09:37:34.020Z,-0.50
2023-01-07T09:40:01.706Z,-0.40
2023-01-07T09:43:15.137Z,-0.30
2023-01-07T09:45:57.254Z,-0.20
2023-01-07T09:48:38.620Z,-0.10
2023-01-07T09:51:18.490Z,0.00
2023-01-07T09:53:50.946Z,0.10
2023-01-07T09:56:25.391Z,0.20
2023-01-07T09:58:54.099Z,0.20
2023-01-07T10:01:47.155Z,0.30
2023-01-07T10:04:28.688Z,0.40
2023-01-07T10:07:08.252Z,0.40
2023-01-07T10:09:58.850Z,0.60
2023-01-07T10:12:54.171Z,0.70
2023-01-07T10:15:55.892Z,0.90
2023-01-07T10:18:33.335Z,1.60
2023-01-07T10:21:10.726Z,2.00
2023-01-07T10:23:49.507Z,2.60
2023-01-07T10:26:32.754Z,3.20
2023-01-07T10:29:37.018Z,3.40
2023-01-07T10:32:13.949Z,4.30
2023-01-07T10:34:51.857Z,4.90
2023-01-07T10:37:37.093Z,5.00
2023-01-07T10:40:23.088Z,5.40
2023-01-07T10:43:31.741Z,5.50
2023-01-07T10:46:30.962Z,5.70
2023-01-07T10:49:09.472Z,5.80
2023-01-07T10:52:00.049Z,6.00
2023-01-07T10:54:45.927Z,6.50
2023-01-07T10:57:20.441Z,6.30
2023-01-07T10:59:50.330Z,6.30
2023-01-07T11:02:20.676Z,6.80
2023-01-07T11:04:49.039Z,6.80
2023-01-07T11:07:45.927Z,6.80
2023-01-07T11:10:29.115Z,7.00
2023-01-07T11:13:03.333Z,7.50
2023-01-07T11:15:41.085Z,7.70
2023-01-07T11:18:35.800Z,7.60
2023-01-07T11:21:03.522Z,7.70
2023-01-07T11:23:43.989Z,7.80
2023-01-07T11:26:28.599Z,8.30
2023-01-07T11:29:13.837Z,8.80
2023-01-07T11:31:57.654Z,9.10
2023-01-07T11:34:30.765Z,8.90
2023-01-07T11:36:58.565Z,9.00
2023-01-07T11:39:29.883Z,9.00
2023-01-07T11:42:51.966Z,9.20
2023-01-07T11:45:45.585Z,9.00
2023-01-07T11:48:36.021Z,9.10
2023-01-07T11:51:06.782Z,9.50
2023-01-07T11:53:38.768Z,9.80
2023-01-07T11:56:10.211Z,9.70
2023-01-07T11:58:45.612Z,9.80
2023-01-07T12:01:20.634Z,10.20
2023-01-07T12:03:54.524Z,10.10
2023-01-07T12:06:25.583Z,9.60
2023-01-07T12:09:11.755Z,9.40
2023-01-07T12:11:40.348Z,9.40
2023-01-07T12:14:23.567Z,9.30
2023-01-07T12:16:52.186Z,8.90
2023-01-07T12:19:54.058Z,9.40
2023-01-07T12:22:39.621Z,9.30
2023-01-07T12:25:45.502Z,9.00
2023-01-07T12:28:13.064Z,8.40
2023-01-07T12:31:05.669Z,7.90
2023-01-07T12:33:51.910Z,8.40
2023-01-07T12:36:29.913Z,8.80
2023-01-07T12:39:02.674Z,8.60
2023-01-07T12:41:39.225Z,8.90
2023-01-07T12:44:13.087Z,8.80
2023-01-07T12:47:31.025Z,9.00
2023-01-07T12:50:04.184Z,9.60
2023-01-07T12:52:36.685Z,9.80
2023-01-07T12:55:17.225Z,9.70
2023-01-07T12:57:54.146Z,9.80
2023-01-07T13:00:38.646Z,9.70
2023-01-07T13:03:34.531Z,9.90
2023-01-07T13:06:15.349Z,9.00
2023-01-07T13:08:58.301Z,8.40
2023-01-07T13:12:02.502Z,7.40
2023-01-07T13:14:45.640Z,7.20
2023-01-07T13:17:16.214Z,6.40
2023-01-07T13:19:44.072Z,5.80
2023-01-07T13:22:20.342Z,5.20
2023-01-07T13:25:15.680Z,4.80
2023-01-07T13:28:11.600Z,4.60
2023-01-07T13:31:26.494Z,4.40
2023-01-07T13:34:23.235Z,4.20
2023-01-07T13:36:53.703Z,4.10
2023-01-07T13:39:30.560Z,4.00
2023-01-07T13:42:29.061Z,3.80
2023-01-07T13:45:11.362Z,3.80
2023-01-07T13:47:44.915Z,3.60
2023-01-07T13:50:38.070Z,3.50
2023-01-07T13:53:27.022Z,3.40
2023-01-07T13:56:17.752Z,3.30
2023-01-07T13:58:55.715Z,3.40
2023-01-07T14:04:07.647Z,3.00
2023-01-07T14:06:36.597Z,3.10
2023-01-07T14:09:16.067Z,3.00
2023-01-07T14:12:21.712Z,2.80
2023-01-07T14:14:49.259Z,2.80
2023-01-07T14:17:37.909Z,2.70
2023-01-07T14:20:55.725Z,2.60
2023-01-07T14:23:49.573Z,2.50
2023-01-07T14:26:23.154Z,2.50
2023-01-07T14:28:56.811Z,2.30
2023-01-07T14:31:27.431Z,2.30
2023-01-07T14:34:18.709Z,2.20
2023-01-07T14:37:02.788Z,2.00
2023-01-07T14:39:44.379Z,2.00
2023-01-07T14:42:27.188Z,2.00
2023-01-07T14:44:54.954Z,1.80
2023-01-07T14:47:58.020Z,1.70
2023-01-07T14:50:46.329Z,1.60
2023-01-07T14:53:35.048Z,1.60
2023-01-07T14:56:17.952Z,1.60
2023-01-07T14:58:55.800Z,1.40
2023-01-07T15:01:55.426Z,1.20
2023-01-07T15:04:45.846Z,1.10
2023-01-07T15:07:26.658Z,1.20
2023-01-07T15:10:18.683Z,1.00
2023-01-07T15:13:14.119Z,1.00
2023-01-07T15:16:04.130Z,1.00
2023-01-07T15:18:41.737Z,0.90
2023-01-07T15:21:22.395Z,0.80
2023-01-07T15:23:58.860Z,0.80
2023-01-07T15:26:49.948Z,0.60
2023-01-07T15:29:32.896Z,0.50
2023-01-07T15:32:15.461Z,0.50
2023-01-07T15:34:43.994Z,0.50
2023-01-07T15:37:14.918Z,0.50
2023-01-07T15:39:52.945Z,0.40
2023-01-07T15:42:23.748Z,0.30
2023-01-07T15:44:54.516Z,0.20
2023-01-07T15:47:31.062Z,0.10
2023-01-07T15:50:33.877Z,0.10
2023-01-07T15:53:11.464Z,0.00
2023-01-07T15:56:04.499Z,-0.10
2023-01-07T15:58:39.488Z,-0.10
2023-01-07T16:01:13.253Z,-0.10
2023-01-07T16:03:45.428Z,-0.10
2023-01-07T16:06:22.232Z,-0.10
2023-01-07T16:08:50.965Z,-0.20
2023-01-07T16:11:30.651Z,-0.20
2023-01-07T16:14:03.887Z,-0.30
2023-01-07T16:16:35.355Z,-0.30
2023-01-07T16:19:04.486Z,-0.40
2023-01-07T16:21:47.899Z,-0.50
2023-01-07T16:24:16.656Z,-0.50
2023-01-07T16:26:49.596Z,-0.50
2023-01-07T16:29:23.696Z,-0.60
2023-01-07T16:31:51.601Z,-0.60
2023-01-07T16:34:25.083Z,-0.70
2023-01-07T16:36:58.335Z,-0.70
2023-01-07T16:39:30.163Z,-0.70
2023-01-07T16:42:16.607Z,-0.70
2023-01-07T16:44:49.575Z,-0.80
2023-01-07T16:47:27.433Z,-0.90
2023-01-07T16:50:19.209Z,-0.90
2023-01-07T16:52:55.364Z,-0.90
2023-01-07T16:55:46.546Z,-0.80
2023-01-07T16:58:35.466Z,-0.90
2023-01-07T17:01:07.392Z,-1.00
2023-01-07T17:03:51.791Z,-1.00
2023-01-07T17:06:45.804Z,-1.10
2023-01-07T17:09:26.727Z,-1.00
2023-01-07T17:11:55.196Z,-1.00
2023-01-07T17:14:36.177Z,-0.90
2023-01-07T17:17:21.192Z,-1.00
2023-01-07T17:20:16.208Z,-1.00
2023-01-07T17:22:44.045Z,-1.00
2023-01-07T17:25:21.420Z,-1.10
2023-01-07T17:27:57.319Z,-1.20
2023-01-07T17:30:36.490Z,-1.30
2023-01-07T17:33:04.333Z,-1.30
2023-01-07T17:35:32.076Z,-1.30
2023-01-07T17:37:59.735Z,-1.30
2023-01-07T17:40:27.488Z,-1.40
2023-01-07T17:43:14.664Z,-1.50
2023-01-07T17:45:42.357Z,-1.40
2023-01-07T17:48:13.893Z,-1.40
2023-01-07T17:50:42.593Z,-1.30
2023-01-07T17:53:23.495Z,-1.40
2023-01-07T17:55:51.627Z,-1.30
2023-01-07T17:58:30.737Z,-1.30
2023-01-07T18:01:00.567Z,-1.30
2023-01-07T18:03:28.783Z,-1.30
2023-01-07T18:05:56.506Z,-1.30
2023-01-07T18:08:24.128Z,-1.40
2023-01-07T18:11:11.345Z,-1.60
2023-01-07T18:13:39.181Z,-1.50
2023-01-07T18:16:07.382Z,-1.40
2023-01-07T18:18:35.185Z,-1.60
2023-01-07T18:21:02.914Z,-1.60
2023-01-07T18:23:30.608Z,-1.60
2023-01-07T18:25:58.382Z,-1.70
2023-01-07T18:28:26.372Z,-1.80
2023-01-07T18:30:53.961Z,-1.80
2023-01-07T18:33:21.591Z,-1.80
2023-01-07T18:35:49.190Z,-1.80
2023-01-07T18:38:17.273Z,-1.90
2023-01-07T18:40:45.354Z,-1.90
2023-01-07T18:43:15.440Z,-1.90
2023-01-07T18:45:44.575Z,-1.90
2023-01-07T18:48:13.552Z,-1.90
2023-01-07T18:50:42.428Z,-1.90
2023-01-07T18:53:12.695Z,-2.00
2023-01-07T18:55:41.983Z,-1.90
2023-01-07T18:58:12.837Z,-2.00
2023-01-07T19:00:41.284Z,-1.90
2023-01-07T19:03:11.353Z,-1.80
2023-01-07T19:05:41.086Z,-1.80
2023-01-07T19:08:11.401Z,-1.90
2023-01-07T19:10:41.969Z,-2.00
2023-01-07T19:13:09.593Z,-2.10
2023-01-07T19:15:39.887Z,-2.10
2023-01-07T19:18:07.901Z,-2.00
2023-01-07T19:20:36.415Z,-2.00
2023-01-07T19:23:10.068Z,-2.00
2023-01-07T19:25:37.813Z,-2.00
2023-01-07T19:28:05.617Z,-2.00
2023-01-07T19:30:33.260Z,-2.00
2023-01-07T19:33:01.098Z,-2.10
2023-01-07T19:35:28.864Z,-2.10
2023-01-07T19:37:56.508Z,-2.10
2023-01-07T19:40:26.916Z,-2.20
2023-01-07T19:42:55.038Z,-2.10
2023-01-07T19:45:22.717Z,-2.10
2023-01-07T19:47:51.253Z,-2.10
2023-01-07T19:50:19.054Z,-2.10
2023-01-07T19:52:46.621Z,-2.20
2023-01-07T19:55:15.075Z,-2.10
2023-01-07T19:57:42.672Z,-2.20
2023-01-07T20:00:11.035Z,-2.20
2023-01-07T20:02:38.702Z,-2.30
2023-01-07T20:05:06.720Z,-2.30
2023-01-07T20:07:35.034Z,-2.30
2023-01-07T20:10:02.748Z,-2.40
2023-01-07T20:12:30.327Z,-2.30
2023-01-07T20:14:57.902Z,-2.40
2023-01-07T20:17:25.533Z,-2.30
2023-01-07T20:19:53.095Z,-2.30
2023-01-07T20:22:20.786Z,-2.30
2023-01-07T20:24:48.436Z,-2.40
2023-01-07T20:27:16.180Z,-2.40
2023-01-07T20:29:44.180Z,-2.40
2023-01-07T20:32:11.971Z,-2.50
2023-01-07T20:34:39.804Z,-2.40
2023-01-07T20:37:08.076Z,-2.40
2023-01-07T20:39:35.735Z,-2.40
2023-01-07T20:42:06.375Z,-2.50
2023-01-07T20:44:34.741Z,-2.50
2023-01-07T20:47:02.611Z,-2.40
2023-01-07T20:49:30.401Z,-2.40
2023-01-07T20:51:58.119Z,-2.30
2023-01-07T20:54:28.824Z,-2.30
2023-01-07T20:56:56.731Z,-2.40
2023-01-07T20:59:24.480Z,-2.40
2023-01-07T21:01:52.258Z,-2.40
2023-01-07T21:04:20.004Z,-2.50
2023-01-07T21:06:47.752Z,-2.50
2023-01-07T21:09:17.879Z,-2.50
2023-01-07T21:11:48.779Z,-2.50
2023-01-07T21:14:16.582Z,-2.50
2023-01-07T21:16:44.375Z,-2.50
2023-01-07T21:19:12.102Z,-2.50
2023-01-07T21:21:39.747Z,-2.50
2023-01-07T21:24:07.644Z,-2.40
2023-01-07T21:26:35.286Z,-2.40
2023-01-07T21:29:03.400Z,-2.40
2023-01-07T21:31:31.151Z,-2.40
2023-01-07T21:33:59.035Z,-2.30
2023-01-07T21:36:28.423Z,-2.30
2023-01-07T21:38:57.933Z,-2.30
2023-01-07T21:41:26.602Z,-2.40
2023-01-07T21:43:55.263Z,-2.50
2023-01-07T21:46:23.054Z,-2.40
2023-01-07T21:48:51.966Z,-2.40
2023-01-07T21:51:22.758Z,-2.40
2023-01-07T21:53:55.903Z,-2.40
2023-01-07T21:56:26.092Z,-2.40
2023-01-07T21:58:53.771Z,-2.40
2023-01-07T22:01:21.784Z,-2.30
2023-01-07T22:03:50.092Z,-2.30
2023-01-07T22:06:26.906Z,-2.20
2023-01-07T22:09:05.085Z,-2.30
2023-01-07T22:11:33.803Z,-2.30
2023-01-07T22:14:07.765Z,-2.20
2023-01-07T22:16:35.433Z,-2.30
2023-01-07T22:19:03.167Z,-2.30
2023-01-07T22:21:31.727Z,-2.50
2023-01-07T22:23:59.353Z,-2.40
2023-01-07T22:26:27.152Z,-2.50
2023-01-07T22:28:57.827Z,-2.50
2023-01-07T22:31:32.225Z,-2.60
2023-01-07T22:34:00.142Z,-2.50
2023-01-07T22:36:42.891Z,-2.50
2023-01-07T22:39:18.675Z,-2.50
2023-01-07T22:41:47.476Z,-2.50
2023-01-07T22:44:19.138Z,-2.50
2023-01-07T22:46:50.225Z,-2.50
2023-01-07T22:49:19.211Z,-2.70
2023-01-07T22:51:49.218Z,-2.70
2023-01-07T22:54:17.490Z,-2.70
2023-01-07T22:56:45.784Z,-2.60
2023-01-07T22:59:13.521Z,-2.60
2023-01-07T23:01:41.147Z,-2.60
2023-01-07T23:04:09.429Z,-2.70
2023-01-07T23:06:37.200Z,-2.70
2023-01-07T23:09:05.809Z,-2.70
2023-01-07T23:11:48.869Z,-2.70
2023-01-07T23:14:23.408Z,-2.80
2023-01-07T23:16:52.427Z,-2.80
2023-01-07T23:19:21.090Z,-2.90
2023-01-07T23:21:53.905Z,-2.80
2023-01-07T23:24:23.015Z,-2.90
2023-01-07T23:26:53.091Z,-2.90
2023-01-07T23:29:21.532Z,-2.90
2023-01-07T23:31:49.733Z,-2.90
2023-01-07T23:34:17.582Z,-2.90
2023-01-07T23:36:45.278Z,-3.00
2023-01-07T23:39:13.121Z,-3.00
2023-01-07T23:41:40.921Z,-3.00
2023-01-07T23:44:08.678Z,-3.00
2023-01-07T23:46:36.353Z,-3.00
2023-01-07T23:49:04.030Z,-3.00
2023-01-07T23:51:31.656Z,-2.90
2023-01-07T23:53:59.302Z,-2.90
2023-01-07T23:56:26.976Z,-3.00
2023-01-07T23:58:54.907Z,-3.00
